Time;durP1;ratioP1;P1;durP2;ratioP2;P2;SDS_P1;SDS_P2;PMS_P1;PMS_P2;Temp;Humidity;BMP_temperature;BMP_pressure;BME280_temperature;BME280_humidity;BME280_pressure;Samples;Min_cycle;Max_cycle;Signal;HPM_P1;HPM_P2
2021/10/19 00:01:01;;;;;;;;;;;20.90;60.60;;;;;;5095289;28;1312;-67
2021/10/19 00:03:27;;;;;;;;;;;20.90;60.60;;;;;;5095146;28;1284;-67
2021/10/19 00:05:53;;;;;;;;;;;20.90;60.70;;;;;;5093988;28;1378;-68
2021/10/19 00:08:18;;;;;;;;;;;20.90;60.70;;;;;;5076856;28;1905;-67
2021/10/19 00:10:44;;;;;;;;;;;20.90;60.70;;;;;;5095084;28;1389;-67
2021/10/19 00:13:09;;;;;;;;;;;20.90;60.80;;;;;;5076900;28;1309;-67
2021/10/19 00:15:35;;;;;;;;;;;20.90;60.80;;;;;;5093786;28;1331;-67
2021/10/19 00:18:00;;;;;;;;;;;20.90;60.80;;;;;;5095119;28;1308;-67
2021/10/19 00:20:26;;;;;;;;;;;20.90;60.80;;;;;;5095176;28;1233;-67
2021/10/19 00:22:51;;;;;;;;;;;20.90;60.90;;;;;;5094564;28;1404;-67
2021/10/19 00:25:17;;;;;;;;;;;20.90;60.90;;;;;;5093948;28;1309;-67
2021/10/19 00:27:42;;;;;;;;;;;20.90;60.90;;;;;;5094488;28;1955;-67
2021/10/19 00:30:09;;;;;;;;;;;20.90;60.90;;;;;;5094504;28;1288;-67
2021/10/19 00:32:35;;;;;;;;;;;20.90;61.70;;;;;;5076735;28;1310;-67
2021/10/19 00:35:00;;;;;;;;;;;20.90;61.00;;;;;;5094067;28;1302;-67
2021/10/19 00:37:26;;;;;;;;;;;20.90;61.00;;;;;;5094816;28;1315;-67
2021/10/19 00:39:51;;;;;;;;;;;20.80;61.00;;;;;;5094122;28;1345;-68
2021/10/19 00:42:17;;;;;;;;;;;20.90;61.00;;;;;;5094453;28;1365;-67
2021/10/19 00:44:43;;;;;;;;;;;20.80;61.00;;;;;;5093443;28;1283;-68
2021/10/19 00:47:08;;;;;;;;;;;20.80;61.00;;;;;;5094360;28;1910;-67
2021/10/19 00:49:34;;;;;;;;;;;20.80;61.10;;;;;;5094347;28;1330;-67
2021/10/19 00:51:59;;;;;;;;;;;20.80;61.10;;;;;;5093762;28;1289;-67
2021/10/19 00:54:25;;;;;;;;;;;20.80;61.10;;;;;;5094084;28;1359;-67
2021/10/19 00:56:53;;;;;;;;;;;20.80;61.10;;;;;;5076235;28;1329;-67
2021/10/19 00:59:19;;;;;;;;;;;20.80;61.10;;;;;;5093826;28;1273;-67
2021/10/19 01:01:44;;;;;;;;;;;20.80;61.10;;;;;;5092815;28;1287;-67
2021/10/19 01:04:10;;;;;;;;;;;20.80;61.10;;;;;;5075222;28;1303;-68
2021/10/19 01:06:35;;;;;;;;;;;20.80;61.10;;;;;;5092275;28;1408;-68
2021/10/19 01:09:00;;;;;;;;;;;20.80;61.20;;;;;;5086529;28;1902;-67
2021/10/19 01:11:26;;;;;;;;;;;20.80;62.00;;;;;;5091661;28;1652;-67
2021/10/19 01:13:51;;;;;;;;;;;20.80;61.20;;;;;;5081623;28;1297;-67
2021/10/19 01:16:17;;;;;;;;;;;20.80;61.20;;;;;;5072768;28;1542;-67
2021/10/19 01:18:43;;;;;;;;;;;20.80;61.20;;;;;;5071828;28;1308;-67
2021/10/19 01:21:08;;;;;;;;;;;20.80;61.20;;;;;;5073247;28;1653;-67
2021/10/19 01:23:34;;;;;;;;;;;20.80;61.30;;;;;;5073858;28;1687;-67
2021/10/19 01:26:00;;;;;;;;;;;20.80;61.30;;;;;;5072860;28;1372;-67
2021/10/19 01:28:25;;;;;;;;;;;20.80;61.30;;;;;;5073557;28;1910;-67
2021/10/19 01:30:51;;;;;;;;;;;20.80;61.40;;;;;;5073239;28;1637;-68
2021/10/19 01:33:16;;;;;;;;;;;20.80;61.40;;;;;;5073820;28;1546;-68
2021/10/19 01:35:43;;;;;;;;;;;20.80;61.40;;;;;;5072378;28;1276;-68
2021/10/19 01:38:27;;;;;;;;;;;20.80;61.50;;;;;;5065072;28;1724;-68
2021/10/19 01:40:52;;;;;;;;;;;20.80;62.50;;;;;;5073512;28;1376;-68
2021/10/19 01:43:19;;;;;;;;;;;20.80;61.70;;;;;;5073548;28;1632;-67
2021/10/19 01:45:48;;;;;;;;;;;20.80;61.80;;;;;;5072197;28;1453;-68
2021/10/19 01:48:13;;;;;;;;;;;20.80;61.80;;;;;;5073133;28;1901;-68
2021/10/19 01:50:38;;;;;;;;;;;20.80;62.00;;;;;;5078629;28;1718;-68
2021/10/19 01:53:05;;;;;;;;;;;20.80;62.00;;;;;;5074742;28;979;-68
2021/10/19 01:55:30;;;;;;;;;;;20.80;62.10;;;;;;5092119;28;1399;-68
2021/10/19 01:57:56;;;;;;;;;;;20.80;62.20;;;;;;5093044;28;1268;-68
2021/10/19 02:00:21;;;;;;;;;;;20.80;62.20;;;;;;5093317;28;1405;-68
2021/10/19 02:02:47;;;;;;;;;;;20.80;62.20;;;;;;5092684;28;1075;-68
2021/10/19 02:05:12;;;;;;;;;;;20.80;62.20;;;;;;5091519;28;1294;-68
2021/10/19 02:07:37;;;;;;;;;;;20.80;62.30;;;;;;5091946;28;1894;-68
2021/10/19 02:10:03;;;;;;;;;;;20.80;62.30;;;;;;5092436;28;1240;-68
2021/10/19 02:12:29;;;;;;;;;;;20.80;62.30;;;;;;5091758;28;1059;-68
2021/10/19 02:14:54;;;;;;;;;;;20.80;62.30;;;;;;5071640;28;1275;-68
2021/10/19 02:17:20;;;;;;;;;;;20.80;62.30;;;;;;5072116;28;1095;-68
2021/10/19 02:19:45;;;;;;;;;;;20.80;62.40;;;;;;5072059;28;1310;-68
2021/10/19 02:22:11;;;;;;;;;;;20.80;62.40;;;;;;5071992;28;1306;-68
2021/10/19 02:24:36;;;;;;;;;;;20.80;62.40;;;;;;5071188;28;1094;-68
2021/10/19 02:27:01;;;;;;;;;;;20.80;62.40;;;;;;5071756;28;1291;-68
2021/10/19 02:29:27;;;;;;;;;;;20.80;62.40;;;;;;5072274;28;1902;-68
2021/10/19 02:31:52;;;;;;;;;;;20.80;62.50;;;;;;5061690;28;1277;-68
2021/10/19 02:34:18;;;;;;;;;;;20.80;62.50;;;;;;5071371;28;1067;-68
2021/10/19 02:36:43;;;;;;;;;;;20.80;62.50;;;;;;5071745;28;1403;-68
2021/10/19 02:39:09;;;;;;;;;;;20.80;62.60;;;;;;5071839;28;1247;-68
2021/10/19 02:41:34;;;;;;;;;;;20.80;62.60;;;;;;5071928;28;1102;-68
2021/10/19 02:44:00;;;;;;;;;;;20.80;62.60;;;;;;5055174;28;1115;-68
2021/10/19 02:46:25;;;;;;;;;;;20.70;62.50;;;;;;5070799;28;1384;-68
2021/10/19 02:48:51;;;;;;;;;;;20.80;62.60;;;;;;5071326;28;1957;-68
2021/10/19 02:51:17;;;;;;;;;;;20.70;62.60;;;;;;5075178;28;1227;-68
2021/10/19 02:53:42;;;;;;;;;;;20.80;62.70;;;;;;5078557;28;1199;-68
2021/10/19 02:56:08;;;;;;;;;;;20.80;62.90;;;;;;5069244;28;1296;-68
2021/10/19 02:58:33;;;;;;;;;;;20.80;62.70;;;;;;5070205;28;1467;-68
2021/10/19 03:00:58;;;;;;;;;;;20.80;62.80;;;;;;5067450;28;1289;-68
2021/10/19 03:03:24;;;;;;;;;;;20.80;62.80;;;;;;5080185;28;1325;-68
2021/10/19 03:05:49;;;;;;;;;;;20.90;62.70;;;;;;5080884;28;1375;-68
2021/10/19 03:08:15;;;;;;;;;;;20.90;62.70;;;;;;5079872;28;1910;-68
2021/10/19 03:10:40;;;;;;;;;;;20.90;62.60;;;;;;5080608;28;1275;-68
2021/10/19 03:13:05;;;;;;;;;;;20.90;62.70;;;;;;5081893;28;1365;-68
2021/10/19 03:15:31;;;;;;;;;;;20.90;62.60;;;;;;5080821;28;1389;-68
2021/10/19 03:17:56;;;;;;;;;;;20.90;62.70;;;;;;5080448;28;1255;-68
2021/10/19 03:20:22;;;;;;;;;;;20.90;62.80;;;;;;5080508;28;1207;-68
2021/10/19 03:22:47;;;;;;;;;;;21.00;62.90;;;;;;5081843;28;1248;-68
2021/10/19 03:25:13;;;;;;;;;;;21.00;62.90;;;;;;5081796;28;1362;-68
2021/10/19 03:27:38;;;;;;;;;;;21.00;63.00;;;;;;5085221;28;1971;-68
2021/10/19 03:30:04;;;;;;;;;;;21.00;63.00;;;;;;5085254;28;1282;-68
2021/10/19 03:32:29;;;;;;;;;;;21.00;63.10;;;;;;5083221;28;1307;-68
2021/10/19 03:34:55;;;;;;;;;;;21.00;63.10;;;;;;5084338;28;1404;-68
2021/10/19 03:37:20;;;;;;;;;;;21.00;63.10;;;;;;5084811;28;1180;-68
2021/10/19 03:39:46;;;;;;;;;;;21.00;63.10;;;;;;5083326;28;1250;-68
2021/10/19 03:42:11;;;;;;;;;;;21.10;63.30;;;;;;5085344;28;1318;-68
2021/10/19 03:44:36;;;;;;;;;;;21.10;63.20;;;;;;5083775;28;1254;-68
2021/10/19 03:47:02;;;;;;;;;;;21.10;63.20;;;;;;5084262;28;1235;-68
2021/10/19 03:49:27;;;;;;;;;;;21.20;63.20;;;;;;5083498;28;1957;-68
2021/10/19 03:51:53;;;;;;;;;;;21.20;63.20;;;;;;5084613;28;1240;-68
2021/10/19 03:54:18;;;;;;;;;;;21.20;63.00;;;;;;5083270;28;1227;-68
2021/10/19 03:56:44;;;;;;;;;;;21.30;62.80;;;;;;5070518;28;1334;-68
2021/10/19 03:59:09;;;;;;;;;;;21.40;62.80;;;;;;5076441;28;1323;-68
2021/10/19 04:01:35;;;;;;;;;;;21.40;62.70;;;;;;5077313;28;1631;-68
2021/10/19 04:04:00;;;;;;;;;;;21.40;62.70;;;;;;5095144;28;1371;-68
2021/10/19 04:06:27;;;;;;;;;;;21.40;62.70;;;;;;5094565;28;1578;-68
2021/10/19 04:08:53;;;;;;;;;;;21.40;62.70;;;;;;5095234;28;1898;-68
2021/10/19 04:11:18;;;;;;;;;;;21.40;62.50;;;;;;5094980;28;1641;-68
2021/10/19 04:13:43;;;;;;;;;;;21.50;62.50;;;;;;5083873;28;1476;-68
2021/10/19 04:16:10;;;;;;;;;;;21.40;62.40;;;;;;5074202;28;1401;-68
2021/10/19 04:18:35;;;;;;;;;;;21.50;62.50;;;;;;5068148;28;1619;-68
2021/10/19 04:21:01;;;;;;;;;;;21.50;62.50;;;;;;5074711;28;1531;-68
2021/10/19 04:23:26;;;;;;;;;;;21.50;62.50;;;;;;5074831;28;1385;-68
2021/10/19 04:25:52;;;;;;;;;;;21.50;62.40;;;;;;5073784;28;1402;-68
2021/10/19 04:28:17;;;;;;;;;;;21.50;62.40;;;;;;5074915;28;1910;-68
2021/10/19 04:30:45;;;;;;;;;;;21.50;62.40;;;;;;5074772;28;1675;-68
2021/10/19 04:33:10;;;;;;;;;;;21.50;62.40;;;;;;5067760;28;1430;-68
2021/10/19 04:35:36;;;;;;;;;;;21.50;62.40;;;;;;5073376;28;1432;-68
2021/10/19 04:38:01;;;;;;;;;;;21.50;62.30;;;;;;5067250;28;1368;-68
2021/10/19 04:40:27;;;;;;;;;;;21.60;62.40;;;;;;5074713;28;1654;-68
2021/10/19 04:42:52;;;;;;;;;;;21.60;62.40;;;;;;5074581;28;1419;-68
2021/10/19 04:45:18;;;;;;;;;;;21.60;62.50;;;;;;5073498;28;1606;-68
2021/10/19 04:47:44;;;;;;;;;;;21.60;62.40;;;;;;5081136;28;1902;-68
2021/10/19 04:50:09;;;;;;;;;;;21.60;62.50;;;;;;5075755;28;1603;-68
2021/10/19 04:52:35;;;;;;;;;;;21.60;62.40;;;;;;5094517;28;1387;-68
2021/10/19 04:55:00;;;;;;;;;;;21.60;62.40;;;;;;5093722;28;1666;-68
2021/10/19 04:57:25;;;;;;;;;;;21.60;62.40;;;;;;5094354;28;1674;-68
2021/10/19 04:59:51;;;;;;;;;;;21.60;62.40;;;;;;5094311;28;1401;-68
2021/10/19 05:02:16;;;;;;;;;;;21.60;62.40;;;;;;5094356;28;1452;-68
2021/10/19 05:04:42;;;;;;;;;;;21.70;62.40;;;;;;5093510;28;1255;-68
2021/10/19 05:07:07;;;;;;;;;;;21.60;62.30;;;;;;5093630;28;1412;-68
2021/10/19 05:09:33;;;;;;;;;;;21.70;62.40;;;;;;5094158;28;1898;-68
2021/10/19 05:11:59;;;;;;;;;;;21.70;62.30;;;;;;5093502;28;1664;-68
2021/10/19 05:14:24;;;;;;;;;;;21.70;62.30;;;;;;5076573;28;1558;-68
2021/10/19 05:16:49;;;;;;;;;;;21.70;62.20;;;;;;5074033;28;1384;-68
2021/10/19 05:19:15;;;;;;;;;;;21.70;62.20;;;;;;5073606;28;1393;-68
2021/10/19 05:21:40;;;;;;;;;;;21.70;62.10;;;;;;5073360;28;1415;-68
2021/10/19 05:24:06;;;;;;;;;;;21.70;62.00;;;;;;5073423;28;1360;-68
2021/10/19 05:26:31;;;;;;;;;;;21.70;62.10;;;;;;5073604;28;1393;-68
2021/10/19 05:28:57;;;;;;;;;;;21.70;62.00;;;;;;5073412;28;1969;-68
2021/10/19 05:31:22;;;;;;;;;;;21.70;62.00;;;;;;5073575;28;1426;-68
2021/10/19 05:33:47;;;;;;;;;;;21.80;62.20;;;;;;5073589;28;1468;-68
2021/10/19 05:36:13;;;;;;;;;;;21.70;62.10;;;;;;5072869;28;1705;-68
2021/10/19 05:38:38;;;;;;;;;;;21.80;62.20;;;;;;5073513;28;1432;-68
2021/10/19 05:41:04;;;;;;;;;;;21.80;62.20;;;;;;5073386;28;1383;-68
2021/10/19 05:43:29;;;;;;;;;;;21.80;62.30;;;;;;5073218;28;1178;-68
2021/10/19 05:45:55;;;;;;;;;;;21.80;62.30;;;;;;5072288;28;1498;-68
2021/10/19 05:48:20;;;;;;;;;;;21.80;62.30;;;;;;5061622;28;1913;-68
2021/10/19 05:50:45;;;;;;;;;;;21.80;62.30;;;;;;5072175;28;1615;-68
2021/10/19 05:53:11;;;;;;;;;;;21.80;62.30;;;;;;5072552;28;1643;-68
2021/10/19 05:55:37;;;;;;;;;;;21.80;62.30;;;;;;5071327;28;1383;-68
2021/10/19 05:58:04;;;;;;;;;;;21.80;62.30;;;;;;5062162;28;1714;-68
2021/10/19 06:00:29;;;;;;;;;;;21.80;62.30;;;;;;5072646;28;1000;-68
2021/10/19 06:02:55;;;;;;;;;;;21.80;62.30;;;;;;5061098;28;1372;-68
2021/10/19 06:05:21;;;;;;;;;;;21.80;62.20;;;;;;5071419;28;1348;-68
2021/10/19 06:07:47;;;;;;;;;;;21.90;62.20;;;;;;5072538;28;1890;-68
2021/10/19 06:10:12;;;;;;;;;;;21.90;62.30;;;;;;5080531;28;1450;-68
2021/10/19 06:12:38;;;;;;;;;;;22.00;62.30;;;;;;5090849;28;1347;-68
2021/10/19 06:15:04;;;;;;;;;;;22.00;62.20;;;;;;5080211;28;2064;-70
2021/10/19 06:17:29;;;;;;;;;;;22.00;62.00;;;;;;5091492;28;1325;-70
2021/10/19 06:19:54;;;;;;;;;;;22.10;62.10;;;;;;5091699;28;1562;-70
2021/10/19 06:22:20;;;;;;;;;;;22.10;62.20;;;;;;5092322;28;1359;-69
2021/10/19 06:24:45;;;;;;;;;;;22.20;62.10;;;;;;5092092;28;1379;-68
2021/10/19 06:27:11;;;;;;;;;;;22.20;62.00;;;;;;5092063;28;1627;-68
2021/10/19 06:29:36;;;;;;;;;;;22.30;61.90;;;;;;5092804;28;1906;-68
2021/10/19 06:32:02;;;;;;;;;;;22.30;61.80;;;;;;5092785;28;1000;-68
2021/10/19 06:34:27;;;;;;;;;;;22.30;61.80;;;;;;5091998;28;1690;-68
2021/10/19 06:36:53;;;;;;;;;;;22.30;62.00;;;;;;5092405;28;1702;-69
2021/10/19 06:39:18;;;;;;;;;;;22.30;61.80;;;;;;5092697;28;1405;-68
2021/10/19 06:41:44;;;;;;;;;;;22.30;61.80;;;;;;5092742;28;1325;-68
2021/10/19 06:44:09;;;;;;;;;;;22.30;61.80;;;;;;5091912;28;1499;-68
2021/10/19 06:46:34;;;;;;;;;;;22.30;61.90;;;;;;5092710;28;1679;-68
2021/10/19 06:49:00;;;;;;;;;;;22.30;62.00;;;;;;5092452;28;1905;-68
2021/10/19 06:51:25;;;;;;;;;;;22.30;62.00;;;;;;5092520;28;1338;-68
2021/10/19 06:53:51;;;;;;;;;;;22.30;62.10;;;;;;5092277;28;1677;-68
2021/10/19 06:56:16;;;;;;;;;;;22.30;62.10;;;;;;5091509;28;1609;-68
2021/10/19 06:58:42;;;;;;;;;;;22.30;62.10;;;;;;5092652;28;1418;-68
2021/10/19 07:01:09;;;;;;;;;;;22.30;62.10;;;;;;5096674;28;1203;-68
2021/10/19 07:03:34;;;;;;;;;;;22.30;62.30;;;;;;5096695;28;1332;-68
2021/10/19 07:06:03;;;;;;;;;;;22.30;62.40;;;;;;5077712;28;1682;-68
2021/10/19 07:08:28;;;;;;;;;;;22.30;62.30;;;;;;5096369;28;1897;-68
2021/10/19 07:10:54;;;;;;;;;;;22.40;62.40;;;;;;5096532;28;1447;-68
2021/10/19 07:13:22;;;;;;;;;;;22.30;62.20;;;;;;5088251;28;1651;-68
2021/10/19 07:15:48;;;;;;;;;;;22.30;62.20;;;;;;5075376;28;1359;-68
2021/10/19 07:18:13;;;;;;;;;;;22.30;62.20;;;;;;5081584;28;1695;-68
2021/10/19 07:20:39;;;;;;;;;;;22.30;62.20;;;;;;5095370;28;1466;-68
2021/10/19 07:23:04;;;;;;;;;;;22.30;62.30;;;;;;5091784;28;1228;-68
2021/10/19 07:25:30;;;;;;;;;;;22.30;62.20;;;;;;5088506;28;1351;-68
2021/10/19 07:28:00;;;;;;;;;;;22.30;62.20;;;;;;5071404;28;1971;-68
2021/10/19 07:30:25;;;;;;;;;;;22.30;62.30;;;;;;5071742;28;1332;-68
2021/10/19 07:32:52;;;;;;;;;;;22.30;62.20;;;;;;5095794;28;1257;-68
2021/10/19 07:35:18;;;;;;;;;;;22.30;62.30;;;;;;5077134;28;1284;-68
2021/10/19 07:37:43;;;;;;;;;;;22.30;62.20;;;;;;5095820;28;1039;-68
2021/10/19 07:40:09;;;;;;;;;;;22.30;62.20;;;;;;5095456;28;1063;-68
2021/10/19 07:42:35;;;;;;;;;;;22.30;62.30;;;;;;5095882;28;1106;-68
2021/10/19 07:45:01;;;;;;;;;;;22.30;62.40;;;;;;5094695;28;1364;-68
2021/10/19 07:47:26;;;;;;;;;;;22.30;62.20;;;;;;5077791;28;1981;-68
2021/10/19 07:49:51;;;;;;;;;;;22.30;62.30;;;;;;5095738;28;1099;-68
2021/10/19 07:52:17;;;;;;;;;;;22.40;62.40;;;;;;5095325;28;1357;-68
2021/10/19 07:54:42;;;;;;;;;;;22.40;62.30;;;;;;5094555;28;1176;-68
2021/10/19 07:57:08;;;;;;;;;;;22.30;62.30;;;;;;5095611;28;1834;-68
2021/10/19 07:59:33;;;;;;;;;;;22.40;62.40;;;;;;5095465;28;1796;-68
2021/10/19 08:01:59;;;;;;;;;;;22.30;62.30;;;;;;5095460;28;1229;-68
2021/10/19 08:04:24;;;;;;;;;;;22.40;62.40;;;;;;5094143;28;1398;-68
2021/10/19 08:06:50;;;;;;;;;;;22.40;62.30;;;;;;5095320;28;1276;-68
2021/10/19 08:09:15;;;;;;;;;;;22.40;62.30;;;;;;5095669;28;1957;-68
2021/10/19 08:11:40;;;;;;;;;;;22.40;62.40;;;;;;5094970;28;1419;-67
2021/10/19 08:14:06;;;;;;;;;;;22.40;62.40;;;;;;5080599;28;1571;-67
2021/10/19 08:16:31;;;;;;;;;;;22.40;62.50;;;;;;5074319;28;1287;-66
2021/10/19 08:18:57;;;;;;;;;;;22.40;62.50;;;;;;5073926;28;1667;-67
2021/10/19 08:21:22;;;;;;;;;;;22.40;62.50;;;;;;5074839;28;1646;-67
2021/10/19 08:23:48;;;;;;;;;;;22.30;62.50;;;;;;5074449;28;1610;-67
2021/10/19 08:26:13;;;;;;;;;;;22.30;62.50;;;;;;5073831;28;1543;-68
2021/10/19 08:28:43;;;;;;;;;;;22.40;62.70;;;;;;5074546;28;1951;-67
2021/10/19 08:31:10;;;;;;;;;;;22.30;62.60;;;;;;5074785;28;1606;-67
2021/10/19 08:33:35;;;;;;;;;;;22.30;62.60;;;;;;5064065;28;1932;-67
2021/10/19 08:36:00;;;;;;;;;;;22.30;62.70;;;;;;5073917;28;1372;-67
2021/10/19 08:38:26;;;;;;;;;;;22.30;62.70;;;;;;5074886;28;1374;-68
2021/10/19 08:40:51;;;;;;;;;;;22.30;62.80;;;;;;5074825;28;1752;-67
2021/10/19 08:43:19;;;;;;;;;;;22.30;62.90;;;;;;5064215;28;1722;-67
2021/10/19 08:45:46;;;;;;;;;;;22.30;62.90;;;;;;5055491;28;1473;-67
2021/10/19 08:48:11;;;;;;;;;;;22.30;63.10;;;;;;5074442;28;1963;-67
2021/10/19 08:50:36;;;;;;;;;;;22.30;63.20;;;;;;5074379;28;1408;-67
2021/10/19 08:53:02;;;;;;;;;;;22.30;63.40;;;;;;5074200;28;1609;-67
2021/10/19 08:55:27;;;;;;;;;;;22.40;63.50;;;;;;5073043;28;1426;-67
2021/10/19 08:57:56;;;;;;;;;;;22.40;63.20;;;;;;5074119;28;1659;-68
2021/10/19 09:00:24;;;;;;;;;;;22.40;63.10;;;;;;5074174;28;1563;-67
2021/10/19 09:02:49;;;;;;;;;;;22.40;63.20;;;;;;5074548;28;1628;-67
2021/10/19 09:05:16;;;;;;;;;;;22.40;63.20;;;;;;5073861;28;1756;-68
2021/10/19 09:08:12;;;;;;;;;;;22.30;63.20;;;;;;5074314;28;1957;-68
2021/10/19 09:10:38;;;;;;;;;;;22.30;63.20;;;;;;5076265;28;1664;-68
2021/10/19 09:13:04;;;;;;;;;;;22.30;63.50;;;;;;5081590;28;1409;-67
2021/10/19 09:15:30;;;;;;;;;;;22.30;63.60;;;;;;5075645;28;1251;-67
2021/10/19 09:17:59;;;;;;;;;;;22.30;63.70;;;;;;5074036;28;1429;-67
2021/10/19 09:20:24;;;;;;;;;;;22.30;63.80;;;;;;5073637;28;1681;-66
2021/10/19 09:22:53;;;;;;;;;;;22.30;63.80;;;;;;5072755;28;1599;-67
2021/10/19 09:25:25;;;;;;;;;;;22.30;63.70;;;;;;5073006;28;1586;-67
2021/10/19 09:27:52;;;;;;;;;;;22.30;63.90;;;;;;5056710;28;1898;-67
2021/10/19 09:30:17;;;;;;;;;;;22.30;63.90;;;;;;5073563;28;1369;-67
2021/10/19 09:32:50;;;;;;;;;;;22.30;63.80;;;;;;5073669;28;1717;-67
2021/10/19 09:35:19;;;;;;;;;;;22.30;63.90;;;;;;5061795;28;1653;-68
2021/10/19 09:37:54;;;;;;;;;;;22.30;63.90;;;;;;5073621;28;1612;-67
2021/10/19 09:40:27;;;;;;;;;;;22.30;63.90;;;;;;5073418;28;1597;-67
2021/10/19 09:42:57;;;;;;;;;;;22.30;63.90;;;;;;5073644;28;1646;-67
2021/10/19 09:45:24;;;;;;;;;;;22.30;63.80;;;;;;5057800;28;1584;-67
2021/10/19 09:47:49;;;;;;;;;;;22.30;63.90;;;;;;5055184;28;1898;-68
2021/10/19 09:50:14;;;;;;;;;;;22.40;63.90;;;;;;5055535;28;1586;-67
2021/10/19 09:52:40;;;;;;;;;;;22.40;63.70;;;;;;5055307;28;1666;-67
2021/10/19 09:55:07;;;;;;;;;;;22.40;63.60;;;;;;5072085;28;1363;-67
2021/10/19 09:57:33;;;;;;;;;;;22.40;63.60;;;;;;5072947;28;1796;-68
2021/10/19 09:59:58;;;;;;;;;;;22.40;63.50;;;;;;5058521;28;1694;-67
2021/10/19 10:02:24;;;;;;;;;;;22.40;63.30;;;;;;5065055;28;1408;-68
2021/10/19 10:04:49;;;;;;;;;;;22.40;63.40;;;;;;5070896;28;1708;-67
2021/10/19 10:07:15;;;;;;;;;;;22.40;63.30;;;;;;5064371;28;1618;-68
2021/10/19 10:09:43;;;;;;;;;;;22.40;63.40;;;;;;5071200;28;1950;-67
2021/10/19 10:12:09;;;;;;;;;;;22.40;63.50;;;;;;5093240;28;1282;-68
2021/10/19 10:14:41;;;;;;;;;;;22.40;63.60;;;;;;5073828;28;1491;-67
2021/10/19 10:17:12;;;;;;;;;;;22.40;63.60;;;;;;5093090;28;1373;-68
2021/10/19 10:19:39;;;;;;;;;;;22.30;63.60;;;;;;5093139;28;1665;-67
2021/10/19 10:22:34;;;;;;;;;;;22.40;63.70;;;;;;5093094;28;1637;-67
2021/10/19 10:25:07;;;;;;;;;;;22.30;63.60;;;;;;5082711;28;1614;-67
2021/10/19 10:27:32;;;;;;;;;;;22.30;63.70;;;;;;5071368;28;2730;-67
2021/10/19 10:29:57;;;;;;;;;;;22.30;63.70;;;;;;5085165;28;1928;-67
2021/10/19 10:32:23;;;;;;;;;;;22.30;63.70;;;;;;5074411;28;1654;-67
2021/10/19 10:34:58;;;;;;;;;;;22.30;63.80;;;;;;5088192;28;1962;-67
2021/10/19 10:37:33;;;;;;;;;;;22.30;63.80;;;;;;5068732;28;1693;-68
2021/10/19 10:39:58;;;;;;;;;;;22.30;63.80;;;;;;5066125;28;1606;-67
2021/10/19 10:42:24;;;;;;;;;;;22.30;63.80;;;;;;5077544;28;1648;-67
2021/10/19 10:44:49;;;;;;;;;;;22.30;63.90;;;;;;5070157;28;1582;-68
2021/10/19 10:47:16;;;;;;;;;;;22.30;64.10;;;;;;5077237;28;1691;-68
2021/10/19 10:49:42;;;;;;;;;;;22.30;64.10;;;;;;5066510;28;1910;-68
2021/10/19 10:52:14;;;;;;;;;;;22.30;64.00;;;;;;5072029;28;1679;-67
2021/10/19 10:54:50;;;;;;;;;;;22.30;64.10;;;;;;5077226;28;1437;-67
2021/10/19 10:57:15;;;;;;;;;;;22.30;64.20;;;;;;5092497;28;1293;-67
2021/10/19 10:59:41;;;;;;;;;;;22.30;64.40;;;;;;5078529;28;1508;-67
2021/10/19 11:02:07;;;;;;;;;;;22.40;64.40;;;;;;5076899;28;1159;-69
2021/10/19 11:04:32;;;;;;;;;;;22.40;64.30;;;;;;5071738;28;1051;-69
2021/10/19 11:06:58;;;;;;;;;;;22.30;63.20;;;;;;5067043;28;1363;-69
2021/10/19 11:09:27;;;;;;;;;;;22.30;61.20;;;;;;5068089;28;1898;-69
2021/10/19 11:11:52;;;;;;;;;;;22.30;60.10;;;;;;5091897;28;1267;-69
2021/10/19 11:14:20;;;;;;;;;;;22.30;59.70;;;;;;5075907;28;1249;-69
2021/10/19 11:16:46;;;;;;;;;;;22.30;59.40;;;;;;5066755;28;1334;-70
2021/10/19 11:19:27;;;;;;;;;;;22.20;59.10;;;;;;5058237;28;1908;-70
2021/10/19 11:21:54;;;;;;;;;;;22.20;58.80;;;;;;5080689;28;1135;-69
2021/10/19 11:24:20;;;;;;;;;;;22.20;58.60;;;;;;5080917;28;1274;-70
2021/10/19 11:26:45;;;;;;;;;;;22.20;58.40;;;;;;5070473;28;1832;-70
2021/10/19 11:29:11;;;;;;;;;;;22.10;58.50;;;;;;5059875;28;1898;-69
2021/10/19 11:31:38;;;;;;;;;;;22.10;58.10;;;;;;5079120;28;1172;-71
2021/10/19 11:34:03;;;;;;;;;;;22.10;58.00;;;;;;5060847;28;1180;-70
2021/10/19 11:36:29;;;;;;;;;;;22.10;58.00;;;;;;5090984;28;1290;-70
2021/10/19 11:38:55;;;;;;;;;;;22.10;57.80;;;;;;5090848;28;1287;-70
2021/10/19 11:41:21;;;;;;;;;;;22.10;57.80;;;;;;5092123;28;1269;-70
2021/10/19 11:43:48;;;;;;;;;;;22.10;57.60;;;;;;5073696;28;1351;-70
2021/10/19 11:46:15;;;;;;;;;;;22.10;55.20;;;;;;5075231;28;1460;-70
2021/10/19 11:48:41;;;;;;;;;;;22.00;54.20;;;;;;5095333;28;1969;-69
2021/10/19 11:51:08;;;;;;;;;;;22.00;53.90;;;;;;5095827;28;1271;-70
2021/10/19 11:53:34;;;;;;;;;;;22.00;54.20;;;;;;5073846;28;1308;-70
2021/10/19 11:56:01;;;;;;;;;;;22.00;53.20;;;;;;5066759;28;1329;-70
2021/10/19 11:58:26;;;;;;;;;;;22.00;53.30;;;;;;5057694;28;1429;-69
2021/10/19 12:00:52;;;;;;;;;;;21.90;54.00;;;;;;5074798;28;1071;-69
2021/10/19 12:03:17;;;;;;;;;;;21.90;54.30;;;;;;5075164;28;1369;-70
2021/10/19 12:05:43;;;;;;;;;;;21.90;54.30;;;;;;5066535;28;1359;-70
2021/10/19 12:08:08;;;;;;;;;;;21.90;54.30;;;;;;5059984;28;1902;-69
2021/10/19 12:10:34;;;;;;;;;;;21.90;54.50;;;;;;5095428;28;1270;-69
2021/10/19 12:13:11;;;;;;;;;;;21.90;54.60;;;;;;5076891;28;1385;-69
2021/10/19 12:15:37;;;;;;;;;;;21.80;55.30;;;;;;5059218;28;1424;-69
2021/10/19 12:18:03;;;;;;;;;;;21.80;54.80;;;;;;5075916;28;1423;-69
2021/10/19 12:20:30;;;;;;;;;;;21.80;52.90;;;;;;5075144;28;1222;-69
2021/10/19 12:22:56;;;;;;;;;;;21.80;52.80;;;;;;5074874;28;1388;-69
2021/10/19 12:25:22;;;;;;;;;;;21.70;53.30;;;;;;5074684;28;1298;-69
2021/10/19 12:27:47;;;;;;;;;;;21.70;53.20;;;;;;5074487;28;1894;-69
2021/10/19 12:30:13;;;;;;;;;;;21.70;53.80;;;;;;5074139;28;1063;-69
2021/10/19 12:32:39;;;;;;;;;;;21.70;54.10;;;;;;5074196;28;1394;-68
2021/10/19 12:35:04;;;;;;;;;;;21.60;54.30;;;;;;5080899;28;1384;-71
2021/10/19 12:37:30;;;;;;;;;;;21.70;54.00;;;;;;5081614;28;1274;-71
2021/10/19 12:39:56;;;;;;;;;;;21.60;54.20;;;;;;5069255;28;1164;-70
2021/10/19 12:42:21;;;;;;;;;;;21.60;54.40;;;;;;5082848;28;1259;-70
2021/10/19 12:44:47;;;;;;;;;;;21.60;54.80;;;;;;5082933;28;1211;-70
2021/10/19 12:47:14;;;;;;;;;;;21.60;54.60;;;;;;5082359;28;1287;-70
2021/10/19 12:49:39;;;;;;;;;;;21.60;54.90;;;;;;5082685;28;1971;-71
2021/10/19 12:52:05;;;;;;;;;;;21.60;55.10;;;;;;5072172;28;1248;-71
2021/10/19 12:54:30;;;;;;;;;;;21.50;55.30;;;;;;5084173;28;1341;-70
2021/10/19 12:56:56;;;;;;;;;;;21.50;55.50;;;;;;5089810;28;1665;-70
2021/10/19 12:59:23;;;;;;;;;;;21.50;55.40;;;;;;5083879;28;1401;-69
2021/10/19 13:01:49;;;;;;;;;;;21.50;55.50;;;;;;5082645;28;1088;-68
2021/10/19 13:04:14;;;;;;;;;;;21.50;55.70;;;;;;5081712;28;1207;-70
2021/10/19 13:06:40;;;;;;;;;;;21.50;55.80;;;;;;5083490;28;1354;-70
2021/10/19 13:09:06;;;;;;;;;;;21.50;55.80;;;;;;5082447;28;1969;-71
2021/10/19 13:11:31;;;;;;;;;;;21.50;55.60;;;;;;5082445;28;1215;-70
2021/10/19 13:13:56;;;;;;;;;;;21.50;55.40;;;;;;5082123;28;1237;-71
2021/10/19 13:16:22;;;;;;;;;;;21.40;55.00;;;;;;5082620;28;1323;-69
2021/10/19 13:18:47;;;;;;;;;;;21.40;54.50;;;;;;5082118;28;1277;-70
2021/10/19 13:21:13;;;;;;;;;;;21.40;54.40;;;;;;5071199;28;1286;-69
2021/10/19 13:23:39;;;;;;;;;;;21.30;54.10;;;;;;5083683;28;1184;-69
2021/10/19 13:26:04;;;;;;;;;;;21.30;54.40;;;;;;5081214;28;1374;-70
2021/10/19 13:28:30;;;;;;;;;;;21.20;54.40;;;;;;5081912;28;1910;-68
2021/10/19 13:30:55;;;;;;;;;;;21.20;54.70;;;;;;5068819;28;1243;-69
2021/10/19 13:33:21;;;;;;;;;;;21.20;55.10;;;;;;5068347;28;1232;-69
2021/10/19 13:35:46;;;;;;;;;;;21.20;55.00;;;;;;5083412;28;1278;-69
2021/10/19 13:38:12;;;;;;;;;;;21.20;55.30;;;;;;5081397;28;1254;-68
2021/10/19 13:40:39;;;;;;;;;;;21.20;55.50;;;;;;5083093;28;1195;-70
2021/10/19 13:43:05;;;;;;;;;;;21.20;55.70;;;;;;5081331;28;1128;-69
2021/10/19 13:45:30;;;;;;;;;;;21.20;55.60;;;;;;5073270;28;1314;-68
2021/10/19 13:47:56;;;;;;;;;;;21.10;55.60;;;;;;5085478;28;2292;-69
2021/10/19 13:50:21;;;;;;;;;;;21.20;55.80;;;;;;5074000;28;1979;-69
2021/10/19 13:52:46;;;;;;;;;;;21.10;56.00;;;;;;5078257;28;1189;-70
2021/10/19 13:55:12;;;;;;;;;;;21.10;55.80;;;;;;5090057;28;1281;-70
2021/10/19 13:57:38;;;;;;;;;;;21.10;55.80;;;;;;5080072;28;1145;-71
2021/10/19 14:00:04;;;;;;;;;;;21.10;55.60;;;;;;5074334;28;1342;-67
2021/10/19 14:02:29;;;;;;;;;;;21.10;55.60;;;;;;5084749;28;1062;-70
2021/10/19 14:04:55;;;;;;;;;;;21.10;55.60;;;;;;5092252;28;1465;-70
2021/10/19 14:07:20;;;;;;;;;;;21.10;55.90;;;;;;5092825;28;1356;-71
2021/10/19 14:09:46;;;;;;;;;;;21.10;55.90;;;;;;5092697;28;1961;-70
2021/10/19 14:12:11;;;;;;;;;;;21.00;56.00;;;;;;5092979;28;1359;-71
2021/10/19 14:14:37;;;;;;;;;;;21.10;56.00;;;;;;5073923;28;1314;-70
2021/10/19 14:17:02;;;;;;;;;;;21.10;56.00;;;;;;5070794;28;1598;-71
2021/10/19 14:19:28;;;;;;;;;;;21.10;56.10;;;;;;5058337;28;1417;-70
2021/10/19 14:21:53;;;;;;;;;;;21.00;55.90;;;;;;5064766;28;1267;-70
2021/10/19 14:24:19;;;;;;;;;;;21.00;56.10;;;;;;5072119;28;1338;-71